South Shore, South Dakota
Current Conditions -  °F | °C
As of 8:53 PM on Friday 28 Nov 2014 (Local Time) from KATY Reporting Station
Haze Haze  
Wind Chill:   Ceiling: Unl
Heat Index: 18°   Visibility: 6mi
Dew Point: 16°   Wind: 9mph
Humidity: 92%   Direction: 130°SE
Pressure: 29.59"   Gusts: NA
Location:  45.11°N, 96.93°W
Report Text: KATY 290253Z AUTO 13008KT 6SM BR SCT004 M08/M09 A2959 RMK AO2 SLP051 I1000 I3000 T10781089 58023
Loading
Personal Weather Stations






























Interactive Weather Map New forecast layout! Learn more

10-Day Weather Forecast

Advertisements
Track Severe Weather on mobile